createdAt,value
2022-08-22T00:00:14.222Z,98034.31
2022-08-22T00:02:40.902Z,98035.94
2022-08-22T00:02:54.356Z,98013.22
2022-08-22T00:03:00.886Z,97954.13
2022-08-22T00:03:02.937Z,97986.53
2022-08-22T00:05:37.641Z,98039.44
2022-08-22T00:08:10.743Z,98034.06
2022-08-22T00:10:43.250Z,98040.78
2022-08-22T00:13:22.568Z,98033.25
2022-08-22T00:16:03.262Z,98038.66
2022-08-22T00:18:53.992Z,97929.22
2022-08-22T00:21:29.523Z,98028.13
2022-08-22T00:24:17.737Z,98035.38
2022-08-22T00:26:55.198Z,98034.84
2022-08-22T00:29:27.181Z,98027.88
2022-08-22T00:32:18.325Z,98029.44
2022-08-22T00:34:54.238Z,98029.44
2022-08-22T00:37:39.824Z,98025.16
2022-08-22T00:40:27.945Z,98030.78
2022-08-22T00:43:30.951Z,98013.03
2022-08-22T00:46:02.215Z,98028.63
2022-08-22T00:48:56.484Z,98023.75
2022-08-22T00:51:48.019Z,98022.59
2022-08-22T00:54:36.326Z,98022.34
2022-08-22T00:57:28.297Z,98017.22
2022-08-22T01:00:14.057Z,98022.31
2022-08-22T01:03:13.421Z,98012.59
2022-08-22T01:06:02.412Z,98014.25
2022-08-22T01:08:54.332Z,98012.66
2022-08-22T01:11:34.987Z,98019.13
2022-08-22T01:14:42.934Z,98010.47
2022-08-22T01:17:47.190Z,98010.22
2022-08-22T01:20:54.652Z,98013.72
2022-08-22T01:23:42.479Z,98016.97
2022-08-22T01:26:44.857Z,98003.50
2022-08-22T01:29:49.319Z,98009.09
2022-08-22T01:32:37.581Z,98005.88
2022-08-22T01:35:25.726Z,98003.47
2022-08-22T01:38:29.974Z,98003.72
2022-08-22T01:41:10.370Z,97996.66
2022-08-22T01:43:59.262Z,98001.69
2022-08-22T01:46:53.355Z,97998.38
2022-08-22T01:49:22.580Z,97997.25
2022-08-22T01:51:59.806Z,98002.13
2022-08-22T01:54:47.840Z,97997.25
2022-08-22T01:57:15.903Z,97993.91
2022-08-22T01:59:52.977Z,97970.03
2022-08-22T02:02:46.530Z,97998.94
2022-08-22T02:05:31.014Z,98000.47
2022-08-22T02:08:03.807Z,97992.88
2022-08-22T02:10:48.769Z,97994.81
2022-08-22T02:13:46.276Z,97995.75
2022-08-22T02:16:25.361Z,98001.38
2022-08-22T02:19:09.840Z,97996.59
2022-08-22T02:21:53.958Z,97999.81
2022-08-22T02:24:27.488Z,97998.97
2022-08-22T02:27:27.188Z,97994.66
2022-08-22T02:30:05.548Z,97998.50
2022-08-22T02:32:40.994Z,97990.94
2022-08-22T02:35:22.436Z,97987.09
2022-08-22T02:38:07.175Z,97990.00
2022-08-22T02:40:41.558Z,97965.94
2022-08-22T02:43:33.976Z,97983.41
2022-08-22T02:46:12.843Z,97984.38
2022-08-22T02:48:42.476Z,97986.94
2022-08-22T02:51:43.132Z,97987.88
2022-08-22T02:54:31.504Z,97982.00
2022-08-22T02:57:11.390Z,97986.06
2022-08-22T03:00:31.742Z,97928.78
2022-08-22T03:03:06.143Z,97983.28
2022-08-22T03:05:35.742Z,97986.66
2022-08-22T03:08:22.946Z,97986.38
2022-08-22T03:11:18.716Z,97988.19
2022-08-22T03:14:03.254Z,97986.44
2022-08-22T03:16:38.925Z,97979.16
2022-08-22T03:19:31.434Z,97996.88
2022-08-22T03:22:02.987Z,97994.13
2022-08-22T03:24:38.752Z,97992.69
2022-08-22T03:27:32.500Z,97956.84
2022-08-22T03:30:20.113Z,97988.59
2022-08-22T03:32:48.581Z,97904.09
2022-08-22T03:35:38.957Z,97988.47
2022-08-22T03:38:22.334Z,97988.66
2022-08-22T03:41:12.881Z,97989.22
2022-08-22T03:44:00.633Z,97979.59
2022-08-22T03:47:01.145Z,97978.34
2022-08-22T03:49:58.928Z,97982.41
2022-08-22T03:53:12.161Z,97972.94
2022-08-22T03:56:09.725Z,97981.06
2022-08-22T03:58:39.063Z,97988.03
2022-08-22T04:01:57.885Z,97990.44
2022-08-22T04:04:55.361Z,97992.31
2022-08-22T04:07:33.463Z,97986.56
2022-08-22T04:10:02.893Z,97989.28
2022-08-22T04:12:43.288Z,97990.81
2022-08-22T04:15:15.763Z,97993.56
2022-08-22T04:18:06.674Z,97989.75
2022-08-22T04:21:19.851Z,97999.25
2022-08-22T04:23:57.853Z,97995.34
2022-08-22T04:26:36.651Z,97994.56
2022-08-22T04:29:17.666Z,97987.59
2022-08-22T04:31:50.350Z,97985.31
2022-08-22T04:34:28.537Z,97990.47
2022-08-22T04:37:18.576Z,97996.03
2022-08-22T04:40:23.063Z,98004.44
2022-08-22T04:43:18.511Z,98002.78
2022-08-22T04:46:36.804Z,98003.25
2022-08-22T04:49:33.726Z,98006.63
2022-08-22T04:52:33.849Z,97997.03
2022-08-22T04:55:23.652Z,98003.78
2022-08-22T04:58:06.862Z,98008.38
2022-08-22T05:01:05.646Z,98012.78
2022-08-22T05:03:46.707Z,98002.88
2022-08-22T05:06:24.413Z,98005.81
2022-08-22T05:09:16.093Z,98003.22
2022-08-22T05:12:16.985Z,97998.41
2022-08-22T05:15:52.427Z,98009.78
2022-08-22T05:19:16.137Z,97981.13
2022-08-22T05:23:29.131Z,98003.81
2022-08-22T05:26:30.183Z,98004.47
2022-08-22T05:29:12.991Z,98008.94
2022-08-22T05:32:00.723Z,98006.72
2022-08-22T05:35:01.574Z,97997.06
2022-08-22T05:37:52.904Z,98015.63
2022-08-22T05:40:41.524Z,98008.81
2022-08-22T05:43:51.271Z,98005.22
2022-08-22T05:46:50.059Z,98006.53
2022-08-22T05:49:56.021Z,98005.19
2022-08-22T05:53:06.483Z,98001.47
2022-08-22T05:56:14.031Z,97996.56
2022-08-22T05:59:51.034Z,97979.34
2022-08-22T06:06:15.779Z,98009.31
2022-08-22T06:09:19.587Z,98009.66
2022-08-22T06:12:22.359Z,98006.88
2022-08-22T06:15:21.257Z,98008.25
2022-08-22T06:18:10.120Z,98006.19
2022-08-22T06:20:53.346Z,97985.59
2022-08-22T06:24:09.442Z,98016.38
2022-08-22T06:26:55.022Z,98013.00
2022-08-22T06:29:57.705Z,98015.81
2022-08-22T06:32:59.807Z,98014.72
2022-08-22T06:36:13.817Z,98018.69
2022-08-22T06:39:27.251Z,98009.69
2022-08-22T06:42:58.091Z,98019.50
2022-08-22T06:46:10.398Z,98013.97
2022-08-22T06:52:13.980Z,98018.94
2022-08-22T06:55:11.479Z,98018.03
2022-08-22T07:01:47.071Z,98016.59
2022-08-22T07:05:03.042Z,98013.34
2022-08-22T07:07:34.180Z,98034.41
2022-08-22T07:10:20.073Z,98023.81
2022-08-22T07:13:11.215Z,98033.69
2022-08-22T07:16:23.899Z,98029.47
2022-08-22T07:20:10.092Z,98023.84
2022-08-22T07:26:12.493Z,97997.16
2022-08-22T07:29:33.914Z,98025.88
2022-08-22T07:32:37.521Z,98034.16
2022-08-22T07:35:57.913Z,98028.25
2022-08-22T07:39:43.973Z,98033.16
2022-08-22T07:42:41.352Z,98031.03
2022-08-22T07:45:44.665Z,98007.28
2022-08-22T07:49:05.852Z,98034.56
2022-08-22T07:51:54.845Z,98028.22
2022-08-22T07:54:47.084Z,98029.28
2022-08-22T07:57:22.364Z,98011.81
2022-08-22T07:59:54.257Z,98022.75
2022-08-22T08:02:22.881Z,98025.28
2022-08-22T08:04:52.785Z,98029.00
2022-08-22T08:07:24.721Z,98021.63
2022-08-22T08:10:00.568Z,98026.69
2022-08-22T08:12:38.291Z,98013.75
2022-08-22T08:15:09.040Z,97946.28
2022-08-22T08:17:38.361Z,98006.00
2022-08-22T08:20:09.636Z,98015.97
2022-08-22T08:22:38.617Z,98018.59
2022-08-22T08:25:07.446Z,98023.31
2022-08-22T08:27:57.106Z,98026.06
2022-08-22T08:30:37.093Z,98006.28
2022-08-22T08:33:25.156Z,98020.47
2022-08-22T08:36:02.418Z,98011.81
2022-08-22T08:38:36.357Z,98010.66
2022-08-22T08:41:14.583Z,98008.38
2022-08-22T08:44:17.041Z,98013.41
2022-08-22T08:47:08.473Z,98015.00
2022-08-22T08:49:50.416Z,98006.31
2022-08-22T08:52:52.864Z,98004.59
2022-08-22T08:55:25.724Z,98008.53
2022-08-22T08:58:33.831Z,98009.59
2022-08-22T09:01:19.441Z,98014.66
2022-08-22T09:03:51.431Z,98013.78
2022-08-22T09:07:01.211Z,98017.06
2022-08-22T09:09:52.623Z,98007.28
2022-08-22T09:12:37.187Z,98000.59
2022-08-22T09:15:59.743Z,97999.69
2022-08-22T09:19:14.552Z,98016.31
2022-08-22T09:22:14.618Z,98008.16
2022-08-22T09:24:57.133Z,98012.16
2022-08-22T09:27:46.275Z,98012.22
2022-08-22T09:30:19.564Z,98008.09
2022-08-22T09:33:06.130Z,97994.41
2022-08-22T09:35:51.077Z,98000.28
2022-08-22T09:38:28.385Z,98004.41
2022-08-22T09:41:13.525Z,97997.28
2022-08-22T09:43:49.023Z,98000.59
2022-08-22T09:46:52.080Z,97996.78
2022-08-22T09:49:42.241Z,97984.25
2022-08-22T09:52:47.087Z,97977.78
2022-08-22T09:55:43.553Z,97986.13
2022-08-22T09:58:42.131Z,97959.03
2022-08-22T10:01:18.927Z,97973.38
2022-08-22T10:03:45.312Z,97969.72
2022-08-22T10:06:21.808Z,97972.81
2022-08-22T10:09:03.744Z,97978.63
2022-08-22T10:11:38.809Z,97969.84
2022-08-22T10:14:21.998Z,97971.81
2022-08-22T10:17:21.815Z,97971.00
2022-08-22T10:19:58.786Z,97966.63
2022-08-22T10:22:32.028Z,97965.94
2022-08-22T10:25:31.889Z,97964.16
2022-08-22T10:28:17.061Z,97960.13
2022-08-22T10:31:21.094Z,97957.78
2022-08-22T10:34:04.309Z,97950.97
2022-08-22T10:36:43.986Z,97955.91
2022-08-22T10:39:13.637Z,97952.34
2022-08-22T10:42:06.753Z,97954.03
2022-08-22T10:44:48.708Z,97959.38
2022-08-22T10:47:21.902Z,97950.94
2022-08-22T10:49:54.122Z,97945.38
2022-08-22T10:52:32.143Z,97946.22
2022-08-22T10:55:17.421Z,97942.13
2022-08-22T10:58:04.564Z,97935.94
2022-08-22T11:00:46.213Z,97940.53
2022-08-22T11:03:26.058Z,97945.06
2022-08-22T11:05:58.076Z,97940.16
2022-08-22T11:09:02.061Z,97937.66
2022-08-22T11:11:51.097Z,97940.13
2022-08-22T11:14:33.054Z,97938.72
2022-08-22T11:17:42.617Z,97921.59
2022-08-22T11:20:31.853Z,97938.03
2022-08-22T11:23:38.792Z,97926.19
2022-08-22T11:26:46.751Z,97925.56
2022-08-22T11:29:41.234Z,97920.75
2022-08-22T11:32:25.554Z,97915.25
2022-08-22T11:35:09.100Z,97912.38
2022-08-22T11:38:01.242Z,97914.38
2022-08-22T11:40:38.496Z,97917.16
2022-08-22T11:43:47.826Z,97909.00
2022-08-22T11:46:20.904Z,97904.19
2022-08-22T11:49:14.496Z,97905.88
2022-08-22T11:51:40.870Z,97915.44
2022-08-22T11:54:30.959Z,97914.31
2022-08-22T11:57:10.471Z,97915.47
2022-08-22T11:59:43.207Z,97914.84
2022-08-22T12:02:32.504Z,97915.59
2022-08-22T12:05:09.752Z,97910.09
2022-08-22T12:07:51.171Z,97916.81
2022-08-22T12:10:21.673Z,97916.03
2022-08-22T12:12:56.953Z,97906.50
2022-08-22T12:16:10.478Z,97913.94
2022-08-22T12:18:53.038Z,97903.56
2022-08-22T12:21:32.580Z,97899.47
2022-08-22T12:24:30.125Z,97902.19
2022-08-22T12:26:59.444Z,97902.50
2022-08-22T12:29:45.030Z,97883.28
2022-08-22T12:32:49.269Z,97894.34
2022-08-22T12:35:37.684Z,97878.63
2022-08-22T12:38:28.185Z,97887.41
2022-08-22T12:41:28.484Z,97886.84
2022-08-22T12:44:24.437Z,97885.00
2022-08-22T12:47:14.549Z,97890.16
2022-08-22T12:50:08.359Z,97877.66
2022-08-22T12:52:57.656Z,97877.81
2022-08-22T12:55:38.072Z,97872.38
2022-08-22T12:58:07.395Z,97870.81
2022-08-22T13:00:43.797Z,97860.13
2022-08-22T13:03:27.650Z,97849.53
2022-08-22T13:06:00.323Z,97861.72
2022-08-22T13:08:39.067Z,97872.13
2022-08-22T13:11:14.636Z,97872.41
2022-08-22T13:13:56.697Z,97861.31
2022-08-22T13:16:26.268Z,97860.03
2022-08-22T13:19:07.868Z,97850.38
2022-08-22T13:21:57.184Z,97857.31
2022-08-22T13:24:39.420Z,97863.56
2022-08-22T13:27:20.393Z,97857.41
2022-08-22T13:29:53.491Z,97859.56
2022-08-22T13:32:37.661Z,97859.81
2022-08-22T13:35:09.245Z,97861.31
2022-08-22T13:37:44.279Z,97849.50
2022-08-22T13:40:21.450Z,97850.31
2022-08-22T13:42:54.211Z,97855.34
2022-08-22T13:45:26.758Z,97858.75
2022-08-22T13:48:03.711Z,97856.25
2022-08-22T13:50:37.136Z,97855.78
2022-08-22T13:53:31.244Z,97858.44
2022-08-22T13:56:25.474Z,97846.31
2022-08-22T13:59:00.075Z,97845.03
2022-08-22T14:01:30.999Z,97846.03
2022-08-22T14:04:00.430Z,97841.63
2022-08-22T14:07:14.552Z,97843.53
2022-08-22T14:10:26.116Z,97843.00
2022-08-22T14:12:56.710Z,97846.44
2022-08-22T14:15:33.919Z,97842.69
2022-08-22T14:18:18.689Z,97838.91
2022-08-22T14:20:47.485Z,97831.81
2022-08-22T14:23:24.168Z,97839.81
2022-08-22T14:25:53.779Z,97842.81
2022-08-22T14:28:31.623Z,97839.94
2022-08-22T14:31:07.324Z,97834.13
2022-08-22T14:33:44.950Z,97832.50
2022-08-22T14:36:18.038Z,97826.25
2022-08-22T14:38:51.449Z,97830.69
2022-08-22T14:41:56.285Z,97829.56
2022-08-22T14:44:30.761Z,97829.09
2022-08-22T14:47:03.841Z,97820.88
2022-08-22T14:49:52.778Z,97825.78
2022-08-22T14:52:37.889Z,97819.28
2022-08-22T14:55:19.163Z,97817.91
2022-08-22T14:57:51.997Z,97815.38
2022-08-22T15:00:44.088Z,97819.28
2022-08-22T15:03:23.834Z,97814.03
2022-08-22T15:05:57.877Z,97823.59
2022-08-22T15:08:32.893Z,97819.16
2022-08-22T15:11:18.453Z,97812.88
2022-08-22T15:14:00.369Z,97816.66
2022-08-22T15:16:50.966Z,97814.47
2022-08-22T15:19:32.708Z,97807.97
2022-08-22T15:22:11.424Z,97817.66
2022-08-22T15:24:50.429Z,97814.16
2022-08-22T15:27:21.800Z,97810.63
2022-08-22T15:29:52.706Z,97800.22
2022-08-22T15:32:26.603Z,97804.44
2022-08-22T15:35:02.322Z,97800.66
2022-08-22T15:37:32.835Z,97802.34
2022-08-22T15:40:02.855Z,97800.53
2022-08-22T15:42:40.557Z,97798.97
2022-08-22T15:45:17.820Z,97792.75
2022-08-22T15:47:50.868Z,97768.66
2022-08-22T15:50:36.582Z,97786.63
2022-08-22T15:53:06.860Z,97780.19
2022-08-22T15:55:34.414Z,97785.66
2022-08-22T15:58:05.577Z,97775.75
2022-08-22T16:01:05.874Z,97781.19
2022-08-22T16:04:07.935Z,97764.38
2022-08-22T16:06:48.394Z,97789.09
2022-08-22T16:09:38.375Z,97787.88
2022-08-22T16:12:25.522Z,97783.13
2022-08-22T16:14:53.236Z,97780.59
2022-08-22T16:17:28.415Z,97782.53
2022-08-22T16:20:12.083Z,97789.91
2022-08-22T16:22:58.551Z,97784.91
2022-08-22T16:25:46.863Z,97780.81
2022-08-22T16:28:54.694Z,97786.19
2022-08-22T16:31:43.003Z,97783.00
2022-08-22T16:34:15.609Z,97788.56
2022-08-22T16:36:48.457Z,97787.91
2022-08-22T16:39:21.188Z,97793.03
2022-08-22T16:41:53.286Z,97784.72
2022-08-22T16:44:38.336Z,97788.47
2022-08-22T16:47:41.627Z,97788.25
2022-08-22T16:50:22.430Z,97787.44
2022-08-22T16:52:58.077Z,97785.16
2022-08-22T16:55:30.566Z,97788.47
2022-08-22T16:58:20.244Z,97792.34
2022-08-22T17:01:15.082Z,97785.97
2022-08-22T17:04:04.274Z,97789.38
2022-08-22T17:06:45.847Z,97786.31
2022-08-22T17:09:14.342Z,97794.97
2022-08-22T17:12:02.564Z,97794.75
2022-08-22T17:14:52.003Z,97800.69
2022-08-22T17:17:55.867Z,97805.16
2022-08-22T17:20:29.311Z,97800.13
2022-08-22T17:23:18.076Z,97795.06
2022-08-22T17:26:22.190Z,97791.41
2022-08-22T17:29:12.750Z,97782.38
2022-08-22T17:31:52.349Z,97797.22
2022-08-22T17:34:39.460Z,97803.00
2022-08-22T17:37:33.769Z,97806.75
2022-08-22T17:40:25.302Z,97808.53
2022-08-22T17:43:03.969Z,97808.63
2022-08-22T17:45:55.184Z,97806.34
2022-08-22T17:48:31.594Z,97782.38
2022-08-22T17:51:12.565Z,97812.75
2022-08-22T17:53:48.293Z,97814.22
2022-08-22T17:56:24.259Z,97809.94
2022-08-22T17:59:04.987Z,97809.84
2022-08-22T18:01:41.181Z,97807.19
2022-08-22T18:04:22.886Z,97813.59
2022-08-22T18:06:58.280Z,97814.41
2022-08-22T18:09:34.508Z,97821.72
2022-08-22T18:12:15.682Z,97818.72
2022-08-22T18:14:53.753Z,97800.50
2022-08-22T18:17:28.418Z,97824.47
2022-08-22T18:20:03.488Z,97823.53
2022-08-22T18:22:36.606Z,97827.59
2022-08-22T18:25:17.630Z,97825.56
2022-08-22T18:27:53.887Z,97820.25
2022-08-22T18:30:29.183Z,97829.72
2022-08-22T18:33:11.481Z,97831.03
2022-08-22T18:35:53.774Z,97829.06
2022-08-22T18:38:29.512Z,97824.13
2022-08-22T18:41:05.511Z,97831.97
2022-08-22T18:43:41.825Z,97833.16
2022-08-22T18:46:27.450Z,97833.47
2022-08-22T18:49:14.772Z,97839.41
2022-08-22T18:51:43.054Z,97846.31
2022-08-22T18:54:11.325Z,97837.34
2022-08-22T18:56:59.910Z,97840.56
2022-08-22T18:59:53.552Z,97836.56
2022-08-22T19:02:58.438Z,97845.88
2022-08-22T19:05:34.020Z,97843.56
2022-08-22T19:08:01.122Z,97843.88
2022-08-22T19:10:50.077Z,97850.75
2022-08-22T19:13:51.454Z,97854.44
2022-08-22T19:16:31.861Z,97852.59
2022-08-22T19:19:17.209Z,97837.25
2022-08-22T19:22:21.692Z,97855.06
2022-08-22T19:25:09.861Z,97859.97
2022-08-22T19:27:41.377Z,97861.44
2022-08-22T19:30:33.850Z,97864.81
2022-08-22T19:33:19.540Z,97833.03
2022-08-22T19:35:53.986Z,97869.00
2022-08-22T19:38:54.417Z,97871.59
2022-08-22T19:41:43.394Z,97871.81
2022-08-22T19:44:19.182Z,97867.41
2022-08-22T19:47:10.100Z,97875.56
2022-08-22T19:49:40.594Z,97873.94
2022-08-22T19:52:22.985Z,97850.94
2022-08-22T19:55:02.981Z,97870.78
2022-08-22T19:57:38.178Z,97801.00
2022-08-22T20:00:17.922Z,97880.34
2022-08-22T20:03:03.205Z,97881.97
2022-08-22T20:05:57.559Z,97876.13
2022-08-22T20:08:43.301Z,97879.97
2022-08-22T20:11:40.448Z,97883.19
2022-08-22T20:14:30.569Z,97878.19
2022-08-22T20:17:24.310Z,97872.75
2022-08-22T20:22:45.652Z,97869.72
2022-08-22T20:25:44.196Z,97873.19
2022-08-22T20:28:29.662Z,97871.47
2022-08-22T20:31:04.610Z,97875.97
2022-08-22T20:33:38.630Z,97880.00
2022-08-22T20:36:28.117Z,97872.75
2022-08-22T20:39:00.568Z,97872.53
2022-08-22T20:41:33.505Z,97878.28
2022-08-22T20:44:28.286Z,97879.50
2022-08-22T20:47:00.110Z,97873.56
2022-08-22T20:49:31.678Z,97884.81
2022-08-22T20:52:05.017Z,97798.63
2022-08-22T20:54:38.308Z,97869.16
2022-08-22T20:57:19.449Z,97882.19
2022-08-22T21:00:03.538Z,97874.56
2022-08-22T21:02:44.907Z,97867.66
2022-08-22T21:05:11.339Z,97880.63
2022-08-22T21:07:44.641Z,97825.63
2022-08-22T21:10:35.904Z,97878.59
2022-08-22T21:13:10.347Z,97879.81
2022-08-22T21:15:45.772Z,97877.00
2022-08-22T21:18:22.771Z,97870.94
2022-08-22T21:20:50.740Z,97874.56
2022-08-22T21:23:17.608Z,97879.66
2022-08-22T21:25:53.244Z,97884.72
2022-08-22T21:28:35.531Z,97886.41
2022-08-22T21:31:10.814Z,97876.97
2022-08-22T21:33:43.718Z,97883.78
2022-08-22T21:36:12.741Z,97881.75
2022-08-22T21:38:40.506Z,97883.97
2022-08-22T21:41:07.278Z,97878.72
2022-08-22T21:48:00.956Z,97881.53
2022-08-22T21:50:34.493Z,97886.78
2022-08-22T21:53:11.807Z,97887.19
2022-08-22T21:55:47.838Z,97886.59
2022-08-22T21:58:34.915Z,97888.19
2022-08-22T22:01:28.451Z,97882.16
2022-08-22T22:03:56.502Z,97884.06
2022-08-22T22:06:22.962Z,97891.16
2022-08-22T22:08:49.392Z,97886.78
2022-08-22T22:11:17.003Z,97882.28
2022-08-22T22:13:44.355Z,97891.16
2022-08-22T22:16:14.719Z,97886.38
2022-08-22T22:18:41.156Z,97889.41
2022-08-22T22:21:08.390Z,97895.00
2022-08-22T22:23:35.081Z,97873.41
2022-08-22T22:26:04.581Z,97905.41
2022-08-22T22:28:34.348Z,97903.28
2022-08-22T22:31:01.356Z,97884.09
2022-08-22T22:33:30.713Z,97907.75
2022-08-22T22:36:00.884Z,97905.19
2022-08-22T22:38:27.280Z,97909.97
2022-08-22T22:40:53.918Z,97914.38
2022-08-22T22:43:20.654Z,97905.19
2022-08-22T22:45:47.086Z,97918.19
2022-08-22T22:48:23.884Z,97918.09
2022-08-22T22:50:51.761Z,97924.31
2022-08-22T22:53:19.676Z,97921.63
2022-08-22T22:55:57.717Z,97924.56
2022-08-22T22:58:26.929Z,97920.31
2022-08-22T23:00:53.415Z,97920.81
2022-08-22T23:03:20.220Z,97920.50
2022-08-22T23:05:46.804Z,97914.88
2022-08-22T23:08:13.210Z,97923.00
2022-08-22T23:10:39.869Z,97907.44
2022-08-22T23:13:06.613Z,97916.06
2022-08-22T23:15:33.053Z,97933.13
2022-08-22T23:17:59.616Z,97924.47
2022-08-22T23:20:26.171Z,97923.31
2022-08-22T23:25:19.006Z,97926.31
2022-08-22T23:27:48.807Z,97929.09
2022-08-22T23:30:20.048Z,97931.34
2022-08-22T23:32:46.533Z,97927.63
2022-08-22T23:35:13.459Z,97933.13
2022-08-22T23:37:39.877Z,97928.78
2022-08-22T23:40:10.385Z,97933.69
2022-08-22T23:42:36.885Z,97922.84
2022-08-22T23:45:04.589Z,97932.72
2022-08-22T23:47:31.036Z,97937.13
2022-08-22T23:49:57.439Z,97940.25
2022-08-22T23:52:24.479Z,97937.19
2022-08-22T23:54:51.579Z,97930.94
2022-08-22T23:57:26.365Z,97938.63
2022-08-22T23:59:57.413Z,97936.88
